createdAt,value
2019-04-06T00:00:02.167Z,66.27
2019-04-06T00:02:30.221Z,66.42
2019-04-06T00:04:56.524Z,66.60
2019-04-06T00:07:22.796Z,66.47
2019-04-06T00:09:49.067Z,66.40
2019-04-06T00:12:15.458Z,66.48
2019-04-06T00:14:41.908Z,66.42
2019-04-06T00:17:09.937Z,66.43
2019-04-06T00:19:36.284Z,66.35
2019-04-06T00:22:02.571Z,66.65
2019-04-06T00:24:28.825Z,66.47
2019-04-06T00:26:55.116Z,66.34
2019-04-06T00:29:21.487Z,66.56
2019-04-06T00:32:07.382Z,66.84
2019-04-06T00:34:33.717Z,66.88
2019-04-06T00:36:59.954Z,67.00
2019-04-06T00:39:26.264Z,67.22
2019-04-06T00:41:52.552Z,68.01
2019-04-06T00:44:18.945Z,68.01
2019-04-06T00:46:45.274Z,67.91
2019-04-06T00:49:11.602Z,67.60
2019-04-06T00:51:37.960Z,67.47
2019-04-06T00:54:04.219Z,67.26
2019-04-06T00:56:30.547Z,67.11
2019-04-06T00:58:56.820Z,67.03
2019-04-06T01:01:23.150Z,66.99
2019-04-06T01:03:49.470Z,67.09
2019-04-06T01:06:15.842Z,67.22
2019-04-06T01:08:42.153Z,67.25
2019-04-06T01:11:08.595Z,67.10
2019-04-06T01:13:34.879Z,68.11
2019-04-06T01:16:02.948Z,68.05
2019-04-06T01:18:29.325Z,67.94
2019-04-06T01:20:55.702Z,67.82
2019-04-06T01:23:21.931Z,67.70
2019-04-06T01:25:48.080Z,67.53
2019-04-06T01:28:14.365Z,67.39
2019-04-06T01:30:40.653Z,67.32
2019-04-06T01:33:06.980Z,67.51
2019-04-06T01:35:33.332Z,67.74
2019-04-06T01:37:59.669Z,67.69
2019-04-06T01:40:25.976Z,68.11
2019-04-06T01:42:52.427Z,68.03
2019-04-06T01:45:18.747Z,67.88
2019-04-06T01:47:45.032Z,67.66
2019-04-06T01:50:11.408Z,67.52
2019-04-06T01:52:37.697Z,67.78
2019-04-06T01:55:04.845Z,67.91
2019-04-06T01:57:31.188Z,67.97
2019-04-06T01:59:57.376Z,67.98
2019-04-06T02:05:21.675Z,68.33
2019-04-06T02:07:48.440Z,68.18
2019-04-06T02:10:14.773Z,68.23
2019-04-06T02:12:41.110Z,68.54
2019-04-06T02:15:07.810Z,68.50
2019-04-06T02:17:34.272Z,68.43
2019-04-06T02:20:00.624Z,68.65
2019-04-06T02:22:26.899Z,68.71
2019-04-06T02:24:56.639Z,68.73
2019-04-06T02:27:22.905Z,68.56
2019-04-06T02:29:51.038Z,68.75
2019-04-06T02:32:31.423Z,69.11
2019-04-06T02:35:28.452Z,69.48
2019-04-06T02:40:42.872Z,69.16
2019-04-06T02:43:10.938Z,69.33
2019-04-06T02:45:37.186Z,69.12
2019-04-06T02:48:03.693Z,68.96
2019-04-06T02:50:30.048Z,69.25
2019-04-06T02:52:56.323Z,69.54
2019-04-06T02:55:22.595Z,69.33
2019-04-06T02:57:48.915Z,69.10
2019-04-06T03:00:15.459Z,68.98
2019-04-06T03:02:41.719Z,68.91
2019-04-06T03:05:08.027Z,69.00
2019-04-06T03:07:34.319Z,68.80
2019-04-06T03:10:00.573Z,68.65
2019-04-06T03:12:26.980Z,68.39
2019-04-06T03:14:53.320Z,68.35
2019-04-06T03:17:19.669Z,68.42
2019-04-06T03:19:45.992Z,68.56
2019-04-06T03:22:12.367Z,69.12
2019-04-06T03:24:38.716Z,69.00
2019-04-06T03:27:05.097Z,68.94
2019-04-06T03:29:31.249Z,68.89
2019-04-06T03:31:57.681Z,68.81
2019-04-06T03:34:23.890Z,68.69
2019-04-06T03:36:50.198Z,68.71
2019-04-06T03:39:16.581Z,68.72
2019-04-06T03:41:42.971Z,68.91
2019-04-06T03:44:09.244Z,69.03
2019-04-06T03:46:35.518Z,69.32
2019-04-06T03:49:01.785Z,69.19
2019-04-06T03:51:28.130Z,69.13
2019-04-06T03:53:54.439Z,69.16
2019-04-06T03:56:20.942Z,69.19
2019-04-06T03:58:47.507Z,69.37
2019-04-06T04:01:13.843Z,69.29
2019-04-06T04:03:40.393Z,69.23
2019-04-06T04:06:06.940Z,69.25
2019-04-06T04:08:33.295Z,69.18
2019-04-06T04:10:59.623Z,69.21
2019-04-06T04:13:25.944Z,69.78
2019-04-06T04:15:56.782Z,69.62
2019-04-06T04:18:21.867Z,69.63
2019-04-06T04:20:48.163Z,69.58
2019-04-06T04:23:14.448Z,69.76
2019-04-06T04:25:40.751Z,69.67
2019-04-06T04:28:07.121Z,69.72
2019-04-06T04:30:34.525Z,69.74
2019-04-06T04:33:01.331Z,69.57
2019-04-06T04:35:27.655Z,69.66
2019-04-06T04:37:53.977Z,69.66
2019-04-06T04:40:20.297Z,69.76
2019-04-06T04:42:46.695Z,70.07
2019-04-06T04:45:13.184Z,69.83
2019-04-06T04:47:39.434Z,69.74
2019-04-06T04:50:06.507Z,69.69
2019-04-06T04:52:32.980Z,69.69
2019-04-06T04:54:59.229Z,69.64
2019-04-06T04:57:25.633Z,70.27
2019-04-06T04:59:51.931Z,70.31
2019-04-06T05:02:18.307Z,70.79
2019-04-06T05:04:44.611Z,71.14
2019-04-06T05:07:10.920Z,71.57
2019-04-06T05:09:37.203Z,71.21
2019-04-06T05:12:03.462Z,71.06
2019-04-06T05:14:56.452Z,71.11
2019-04-06T05:17:22.738Z,71.01
2019-04-06T05:19:49.127Z,71.25
2019-04-06T05:22:15.453Z,71.21
2019-04-06T05:24:41.978Z,71.11
2019-04-06T05:27:08.313Z,71.12
2019-04-06T05:29:37.396Z,71.98
2019-04-06T05:32:03.947Z,72.51
2019-04-06T05:34:30.312Z,72.02
2019-04-06T05:36:56.601Z,72.08
2019-04-06T05:39:22.933Z,71.90
2019-04-06T05:41:50.493Z,72.50
2019-04-06T05:44:17.324Z,72.77
2019-04-06T05:46:43.839Z,72.32
2019-04-06T05:49:10.051Z,72.38
2019-04-06T05:51:36.308Z,72.21
2019-04-06T05:54:02.547Z,71.87
2019-04-06T05:56:28.821Z,71.81
2019-04-06T05:58:55.119Z,71.55
2019-04-06T06:01:21.664Z,71.65
2019-04-06T06:03:48.017Z,72.61
2019-04-06T06:06:14.301Z,72.18
2019-04-06T06:08:40.678Z,72.07
2019-04-06T06:11:07.026Z,72.35
2019-04-06T06:13:33.336Z,72.68
2019-04-06T06:15:59.587Z,73.08
2019-04-06T06:18:27.637Z,74.06
2019-04-06T06:20:54.031Z,73.71
2019-04-06T06:23:20.317Z,73.73
2019-04-06T06:25:46.554Z,73.29
2019-04-06T06:28:15.085Z,72.65
2019-04-06T06:30:43.839Z,72.36
2019-04-06T06:33:10.113Z,72.14
2019-04-06T06:35:36.444Z,72.09
2019-04-06T06:38:02.776Z,72.74
2019-04-06T06:40:29.033Z,72.25
2019-04-06T06:42:55.252Z,71.88
2019-04-06T06:45:21.532Z,71.80
2019-04-06T06:47:47.784Z,71.69
2019-04-06T06:50:15.888Z,71.57
2019-04-06T06:52:42.363Z,71.63
2019-04-06T06:55:08.866Z,71.72
2019-04-06T06:57:36.101Z,71.47
2019-04-06T07:00:03.913Z,71.22
2019-04-06T07:02:30.222Z,70.63
2019-04-06T07:04:56.533Z,70.43
2019-04-06T07:07:22.900Z,70.46
2019-04-06T07:09:49.211Z,70.22
2019-04-06T07:12:15.861Z,70.03
2019-04-06T07:14:42.194Z,69.96
2019-04-06T07:17:08.470Z,69.93
2019-04-06T07:19:34.806Z,69.12
2019-04-06T07:22:01.102Z,68.65
2019-04-06T07:24:30.109Z,67.80
2019-04-06T07:26:56.427Z,67.19
2019-04-06T07:29:23.868Z,66.79
2019-04-06T07:31:50.145Z,66.58
2019-04-06T07:34:16.496Z,65.69
2019-04-06T07:36:43.126Z,65.15
2019-04-06T07:39:12.241Z,64.99
2019-04-06T07:41:38.539Z,64.59
2019-04-06T07:44:06.134Z,64.60
2019-04-06T07:46:32.812Z,64.11
2019-04-06T07:49:07.833Z,64.01
2019-04-06T07:51:28.578Z,63.60
2019-04-06T07:53:57.614Z,63.47
2019-04-06T07:56:23.931Z,63.26
2019-04-06T07:58:50.568Z,63.43
2019-04-06T08:01:16.963Z,63.03
2019-04-06T08:03:43.261Z,62.89
2019-04-06T08:06:11.054Z,62.55
2019-04-06T08:08:40.574Z,62.69
2019-04-06T08:11:06.970Z,62.22
2019-04-06T08:13:33.838Z,61.65
2019-04-06T08:15:59.984Z,61.70
2019-04-06T08:18:26.108Z,61.54
2019-04-06T08:20:52.286Z,61.86
2019-04-06T08:23:18.728Z,61.62
2019-04-06T08:25:45.033Z,61.06
2019-04-06T08:28:11.274Z,60.50
2019-04-06T08:30:45.444Z,60.00
2019-04-06T08:33:05.748Z,60.08
2019-04-06T08:35:33.051Z,59.24
2019-04-06T08:37:59.242Z,59.36
2019-04-06T08:40:25.544Z,59.78
2019-04-06T08:42:51.824Z,59.14
2019-04-06T08:45:18.280Z,58.76
2019-04-06T08:47:44.396Z,59.45
2019-04-06T08:50:11.494Z,58.98
2019-04-06T08:52:39.529Z,58.64
2019-04-06T08:55:05.998Z,58.39
2019-04-06T08:57:34.072Z,58.92
2019-04-06T09:00:00.289Z,58.75
2019-04-06T09:02:28.488Z,58.59
2019-04-06T09:04:54.780Z,58.95
2019-04-06T09:07:21.009Z,58.95
2019-04-06T09:09:47.270Z,58.93
2019-04-06T09:12:13.544Z,58.42
2019-04-06T09:14:39.793Z,58.32
2019-04-06T09:17:06.119Z,58.24
2019-04-06T09:19:32.438Z,58.30
2019-04-06T09:21:58.656Z,57.71
2019-04-06T09:24:25.016Z,57.22
2019-04-06T09:29:30.689Z,57.31
2019-04-06T09:31:57.089Z,57.88
2019-04-06T09:34:23.597Z,57.83
2019-04-06T09:36:49.909Z,58.00
2019-04-06T09:39:16.186Z,58.02
2019-04-06T09:41:42.536Z,58.03
2019-04-06T09:47:05.798Z,58.31
2019-04-06T09:49:42.784Z,58.42
2019-04-06T09:52:10.805Z,58.38
2019-04-06T09:54:46.359Z,58.50
2019-04-06T09:57:14.344Z,58.57
2019-04-06T09:59:54.438Z,58.81
2019-04-06T10:02:22.972Z,59.05
2019-04-06T10:04:54.075Z,59.11
2019-04-06T10:07:31.128Z,59.23
2019-04-06T10:10:01.091Z,59.73
2019-04-06T10:12:45.636Z,60.22
2019-04-06T10:15:30.893Z,60.71
2019-04-06T10:21:11.506Z,61.39
2019-04-06T10:23:42.358Z,62.06
2019-04-06T10:26:28.768Z,62.69
2019-04-06T10:28:59.600Z,63.08
2019-04-06T10:31:42.706Z,63.54
2019-04-06T10:34:27.369Z,63.97
2019-04-06T10:36:55.479Z,64.80
2019-04-06T10:39:38.763Z,65.10
2019-04-06T10:42:12.993Z,65.91
2019-04-06T10:44:46.728Z,66.46
2019-04-06T10:47:16.773Z,66.57
2019-04-06T10:49:44.909Z,67.65
2019-04-06T10:52:22.004Z,67.74
2019-04-06T10:54:50.047Z,68.34
2019-04-06T10:57:34.680Z,68.26
2019-04-06T11:00:18.022Z,68.48
2019-04-06T11:02:54.971Z,69.66
2019-04-06T11:05:23.110Z,72.26
2019-04-06T11:07:51.186Z,72.99
2019-04-06T11:10:19.216Z,74.20
2019-04-06T11:13:04.011Z,74.80
2019-04-06T11:15:34.987Z,74.97
2019-04-06T11:18:19.728Z,75.21
2019-04-06T11:20:53.931Z,74.85
2019-04-06T11:23:36.886Z,74.71
2019-04-06T11:26:14.021Z,75.48
2019-04-06T11:28:45.236Z,75.26
2019-04-06T11:31:30.012Z,74.50
2019-04-06T11:34:06.834Z,75.03
2019-04-06T11:36:37.444Z,76.13
2019-04-06T11:39:24.363Z,76.59
2019-04-06T11:41:54.589Z,76.50
2019-04-06T11:44:38.980Z,76.88
2019-04-06T11:47:19.349Z,77.21
2019-04-06T11:49:47.667Z,77.16
2019-04-06T11:52:29.678Z,76.86
2019-04-06T11:57:57.720Z,77.35
2019-04-06T12:00:34.823Z,77.90
2019-04-06T12:03:02.872Z,78.00
2019-04-06T12:05:47.813Z,77.55
2019-04-06T12:08:15.864Z,77.27
2019-04-06T12:10:44.194Z,76.54
2019-04-06T12:13:12.229Z,76.40
2019-04-06T12:15:40.233Z,76.56
2019-04-06T12:18:20.341Z,76.56
2019-04-06T12:23:51.148Z,76.15
2019-04-06T12:26:23.066Z,75.67
2019-04-06T12:32:07.163Z,75.65
2019-04-06T12:40:25.300Z,77.52
2019-04-06T12:42:53.301Z,77.56
2019-04-06T12:45:23.955Z,77.05
2019-04-06T12:47:52.074Z,77.59
2019-04-06T12:50:32.288Z,77.97
2019-04-06T12:53:15.278Z,78.87
2019-04-06T12:58:47.362Z,80.82
2019-04-06T13:01:21.139Z,80.59
2019-04-06T13:03:49.446Z,80.23
2019-04-06T13:09:28.834Z,79.74
2019-04-06T13:12:13.803Z,78.85
2019-04-06T13:14:42.176Z,78.74
2019-04-06T13:17:10.541Z,79.45
2019-04-06T13:19:41.534Z,79.08
2019-04-06T13:22:21.500Z,78.79
2019-04-06T13:24:58.682Z,78.65
2019-04-06T13:37:44.720Z,77.46
2019-04-06T13:40:29.492Z,77.61
2019-04-06T13:43:06.330Z,77.24
2019-04-06T13:45:36.239Z,77.32
2019-04-06T13:48:21.337Z,78.03
2019-04-06T13:50:52.205Z,78.39
2019-04-06T13:59:04.038Z,79.86
2019-04-06T14:01:33.379Z,80.30
2019-04-06T14:04:18.096Z,80.66
2019-04-06T14:06:55.655Z,80.60
2019-04-06T14:09:39.142Z,80.53
2019-04-06T14:12:07.245Z,80.24
2019-04-06T14:14:52.293Z,80.08
2019-04-06T14:17:37.218Z,80.26
2019-04-06T14:20:19.481Z,81.01
2019-04-06T14:23:02.725Z,81.23
2019-04-06T14:25:42.789Z,81.87
2019-04-06T14:31:28.322Z,80.91
2019-04-06T14:33:56.686Z,80.98
2019-04-06T14:39:31.966Z,80.26
2019-04-06T14:42:00.573Z,80.13
2019-04-06T14:44:37.745Z,79.49
2019-04-06T14:47:06.370Z,78.40
2019-04-06T14:49:56.983Z,77.52
2019-04-06T14:52:31.051Z,77.05
2019-04-06T14:55:23.895Z,76.62
2019-04-06T14:58:09.196Z,76.10
2019-04-06T15:07:26.591Z,75.41
2019-04-06T15:09:59.101Z,75.77
2019-04-06T15:12:32.874Z,76.06
2019-04-06T15:15:06.558Z,75.68
2019-04-06T15:17:34.700Z,75.71
2019-04-06T15:20:02.748Z,75.88
2019-04-06T15:22:46.273Z,76.39
2019-04-06T15:25:14.476Z,75.98
2019-04-06T15:30:48.844Z,75.47
2019-04-06T15:33:19.022Z,75.08
2019-04-06T15:35:50.604Z,75.35
2019-04-06T15:38:18.682Z,75.62
2019-04-06T15:43:50.708Z,75.68
2019-04-06T15:49:18.749Z,74.95
2019-04-06T15:54:38.091Z,75.11
2019-04-06T15:57:10.389Z,75.12
2019-04-06T15:59:55.036Z,75.51
2019-04-06T16:02:25.976Z,75.33
2019-04-06T16:04:54.151Z,75.03
2019-04-06T16:07:33.526Z,75.23
2019-04-06T16:12:43.595Z,75.46
2019-04-06T16:15:27.154Z,75.99
2019-04-06T16:18:10.872Z,76.13
2019-04-06T16:20:38.954Z,75.96
2019-04-06T16:23:07.004Z,75.71
2019-04-06T16:25:36.760Z,75.85
2019-04-06T16:28:22.121Z,75.61
2019-04-06T16:30:58.862Z,75.25
2019-04-06T16:33:27.224Z,75.62
2019-04-06T16:36:12.380Z,75.90
2019-04-06T16:39:03.639Z,75.69
2019-04-06T16:41:32.058Z,75.54
2019-04-06T16:44:00.715Z,75.46
2019-04-06T16:46:31.580Z,75.84
2019-04-06T16:49:02.469Z,76.14
2019-04-06T16:51:30.506Z,76.45
2019-04-06T16:54:01.810Z,76.24
2019-04-06T16:56:41.956Z,75.95
2019-04-06T16:59:19.259Z,75.79
2019-04-06T17:02:05.561Z,75.63
2019-04-06T17:04:50.675Z,76.29
2019-04-06T17:07:19.378Z,76.54
2019-04-06T17:09:59.886Z,76.73
2019-04-06T17:15:27.812Z,76.65
2019-04-06T17:17:55.834Z,76.92
2019-04-06T17:20:36.207Z,76.76
2019-04-06T17:23:16.301Z,76.36
2019-04-06T17:26:01.109Z,76.10
2019-04-06T17:28:43.984Z,75.81
2019-04-06T17:31:27.222Z,75.92
2019-04-06T17:33:55.570Z,75.89
2019-04-06T17:36:38.772Z,75.83
2019-04-06T17:39:19.726Z,75.77
2019-04-06T17:41:53.613Z,76.04
2019-04-06T17:44:22.119Z,75.75
2019-04-06T17:46:50.458Z,75.76
2019-04-06T17:49:23.975Z,75.44
2019-04-06T17:51:53.273Z,75.11
2019-04-06T17:54:36.713Z,74.79
2019-04-06T17:57:07.550Z,74.38
2019-04-06T17:59:41.734Z,74.18
2019-04-06T18:02:17.024Z,73.92
2019-04-06T18:04:45.484Z,73.54
2019-04-06T18:07:28.748Z,73.16
2019-04-06T18:10:02.743Z,73.19
2019-04-06T18:12:47.385Z,73.08
2019-04-06T18:15:13.613Z,73.01
2019-04-06T18:17:39.761Z,73.12
2019-04-06T18:20:08.531Z,72.89
2019-04-06T18:22:34.672Z,72.67
2019-04-06T18:25:00.841Z,72.49
2019-04-06T18:27:27.430Z,72.37
2019-04-06T18:29:53.742Z,72.98
2019-04-06T18:35:04.977Z,74.05
2019-04-06T18:37:41.108Z,74.04
2019-04-06T18:40:10.246Z,73.79
2019-04-06T18:42:38.488Z,73.68
2019-04-06T18:45:05.636Z,73.65
2019-04-06T18:47:32.362Z,73.74
2019-04-06T18:49:59.147Z,73.75
2019-04-06T18:52:25.435Z,74.10
2019-04-06T18:54:51.840Z,73.96
2019-04-06T18:57:18.051Z,74.14
2019-04-06T18:59:44.210Z,74.50
2019-04-06T19:02:10.908Z,74.18
2019-04-06T19:04:37.369Z,74.14
2019-04-06T19:07:03.814Z,74.32
2019-04-06T19:09:30.416Z,74.85
2019-04-06T19:11:57.195Z,74.88
2019-04-06T19:14:24.013Z,74.84
2019-04-06T19:16:50.295Z,75.13
2019-04-06T19:19:16.520Z,74.44
2019-04-06T19:21:43.181Z,74.20
2019-04-06T19:24:10.233Z,74.16
2019-04-06T19:26:37.983Z,74.84
2019-04-06T19:29:04.487Z,74.70
2019-04-06T19:31:30.593Z,73.69
2019-04-06T19:33:56.715Z,73.27
2019-04-06T19:36:23.052Z,72.68
2019-04-06T19:38:49.640Z,72.66
2019-04-06T19:41:16.003Z,72.50
2019-04-06T19:43:42.621Z,72.40
2019-04-06T19:46:08.955Z,72.41
2019-04-06T19:48:35.309Z,72.38
2019-04-06T19:51:01.608Z,72.57
2019-04-06T19:53:27.896Z,72.38
2019-04-06T19:55:54.834Z,72.25
2019-04-06T19:58:21.570Z,71.98
2019-04-06T20:00:47.919Z,72.11
2019-04-06T20:03:14.184Z,72.20
2019-04-06T20:05:40.451Z,72.96
2019-04-06T20:08:07.130Z,72.75
2019-04-06T20:10:33.864Z,73.19
2019-04-06T20:13:00.221Z,73.33
2019-04-06T20:15:26.447Z,73.36
2019-04-06T20:17:52.695Z,73.17
2019-04-06T20:20:19.064Z,73.00
2019-04-06T20:22:45.783Z,73.58
2019-04-06T20:25:12.699Z,73.11
2019-04-06T20:27:39.083Z,73.03
2019-04-06T20:30:07.813Z,72.99
2019-04-06T20:32:34.478Z,73.27
2019-04-06T20:35:00.623Z,73.23
2019-04-06T20:37:27.453Z,73.13
2019-04-06T20:39:54.241Z,72.85
2019-04-06T20:42:20.974Z,72.84
2019-04-06T20:44:47.278Z,72.59
2019-04-06T20:47:13.619Z,72.33
2019-04-06T20:49:40.150Z,72.30
2019-04-06T20:52:06.553Z,72.36
2019-04-06T20:54:32.923Z,73.07
2019-04-06T20:56:59.212Z,73.15
2019-04-06T20:59:25.427Z,72.91
2019-04-06T21:01:52.112Z,72.70
2019-04-06T21:04:18.609Z,72.41
2019-04-06T21:06:44.983Z,72.54
2019-04-06T21:09:13.001Z,73.17
2019-04-06T21:11:39.445Z,72.95
2019-04-06T21:14:05.609Z,73.61
2019-04-06T21:16:31.967Z,73.31
2019-04-06T21:18:58.310Z,73.13
2019-04-06T21:21:24.843Z,72.92
2019-04-06T21:23:51.031Z,72.71
2019-04-06T21:26:17.321Z,72.92
2019-04-06T21:28:43.595Z,72.90
2019-04-06T21:31:09.946Z,73.11
2019-04-06T21:33:36.161Z,73.81
2019-04-06T21:36:03.269Z,73.87
2019-04-06T21:38:29.680Z,73.82
2019-04-06T21:40:55.993Z,74.06
2019-04-06T21:43:22.454Z,74.15
2019-04-06T21:45:48.626Z,73.94
2019-04-06T21:48:14.949Z,73.94
2019-04-06T21:50:41.264Z,73.83
2019-04-06T21:53:07.395Z,73.94
2019-04-06T21:55:33.577Z,74.52
2019-04-06T21:57:59.764Z,74.56
2019-04-06T22:00:36.960Z,74.43
2019-04-06T22:03:04.350Z,74.62
2019-04-06T22:05:30.932Z,74.89
2019-04-06T22:07:57.277Z,75.71
2019-04-06T22:10:23.666Z,75.94
2019-04-06T22:12:50.189Z,75.66
2019-04-06T22:15:16.602Z,75.44
2019-04-06T22:17:43.007Z,75.40
2019-04-06T22:20:09.529Z,75.50
2019-04-06T22:22:35.703Z,75.70
2019-04-06T22:25:02.316Z,75.93
2019-04-06T22:27:28.966Z,76.10
2019-04-06T22:29:55.533Z,77.05
2019-04-06T22:32:22.003Z,76.91
2019-04-06T22:34:48.729Z,76.65
2019-04-06T22:37:15.049Z,76.66
2019-04-06T22:39:41.351Z,76.61
2019-04-06T22:42:07.768Z,76.67
2019-04-06T22:44:34.066Z,76.77
2019-04-06T22:47:00.380Z,76.89
2019-04-06T22:49:27.224Z,76.94
2019-04-06T22:51:53.987Z,77.00
2019-04-06T22:54:21.270Z,77.09
2019-04-06T22:56:48.345Z,77.42
2019-04-06T22:59:16.652Z,77.47
2019-04-06T23:01:43.712Z,77.19
2019-04-06T23:04:14.793Z,77.10
2019-04-06T23:06:42.844Z,77.14
2019-04-06T23:09:09.101Z,77.25
2019-04-06T23:11:35.574Z,77.41
2019-04-06T23:14:02.090Z,77.35
2019-04-06T23:16:28.651Z,77.34
2019-04-06T23:18:55.073Z,77.41
2019-04-06T23:21:21.485Z,77.55
2019-04-06T23:23:47.791Z,77.74
2019-04-06T23:29:17.858Z,78.28
2019-04-06T23:31:44.217Z,78.51
2019-04-06T23:34:10.497Z,78.24
2019-04-06T23:36:37.106Z,78.13
2019-04-06T23:39:05.760Z,78.69
2019-04-06T23:41:32.303Z,78.90
2019-04-06T23:43:58.707Z,79.30
2019-04-06T23:46:24.957Z,79.35
2019-04-06T23:48:51.196Z,79.43
2019-04-06T23:51:19.982Z,79.73
2019-04-06T23:53:49.535Z,79.26
2019-04-06T23:56:15.883Z,79.26
2019-04-06T23:58:42.114Z,79.01
